sensor_id;sensor_type;location;lat;lon;timestamp;P1;durP1;ratioP1;P2;durP2;ratioP2
35304;SDS011;26433;48.034;-1.764;2023-09-18T00:04:49;4.63;;;1.27;;
35304;SDS011;26433;48.034;-1.764;2023-09-18T00:09:54;1.73;;;0.83;;
35304;SDS011;26433;48.034;-1.764;2023-09-18T00:14:57;1.23;;;1.00;;
35304;SDS011;26433;48.034;-1.764;2023-09-18T00:20:01;1.23;;;0.87;;
35304;SDS011;26433;48.034;-1.764;2023-09-18T00:25:08;3.05;;;0.93;;
35304;SDS011;26433;48.034;-1.764;2023-09-18T00:30:12;1.25;;;0.98;;
35304;SDS011;26433;48.034;-1.764;2023-09-18T00:35:17;0.88;;;0.70;;
35304;SDS011;26433;48.034;-1.764;2023-09-18T00:40:22;5.55;;;1.20;;
35304;SDS011;26433;48.034;-1.764;2023-09-18T00:45:26;1.62;;;0.88;;
35304;SDS011;26433;48.034;-1.764;2023-09-18T00:50:30;4.77;;;1.40;;
35304;SDS011;26433;48.034;-1.764;2023-09-18T00:55:36;2.60;;;1.05;;
35304;SDS011;26433;48.034;-1.764;2023-09-18T01:00:40;1.15;;;1.00;;
35304;SDS011;26433;48.034;-1.764;2023-09-18T01:05:44;1.93;;;1.37;;
35304;SDS011;26433;48.034;-1.764;2023-09-18T01:10:52;3.67;;;1.20;;
35304;SDS011;26433;48.034;-1.764;2023-09-18T01:16:04;3.30;;;1.30;;
35304;SDS011;26433;48.034;-1.764;2023-09-18T01:21:13;1.98;;;1.37;;
35304;SDS011;26433;48.034;-1.764;2023-09-18T01:26:18;4.30;;;1.57;;
35304;SDS011;26433;48.034;-1.764;2023-09-18T01:31:22;4.70;;;1.92;;
35304;SDS011;26433;48.034;-1.764;2023-09-18T01:36:28;4.47;;;1.55;;
35304;SDS011;26433;48.034;-1.764;2023-09-18T01:41:34;2.97;;;1.80;;
35304;SDS011;26433;48.034;-1.764;2023-09-18T01:46:37;4.12;;;2.55;;
35304;SDS011;26433;48.034;-1.764;2023-09-18T01:51:42;2.10;;;1.90;;
35304;SDS011;26433;48.034;-1.764;2023-09-18T01:56:48;4.30;;;1.85;;
35304;SDS011;26433;48.034;-1.764;2023-09-18T02:01:52;3.87;;;2.03;;
35304;SDS011;26433;48.034;-1.764;2023-09-18T02:06:57;3.58;;;2.22;;
35304;SDS011;26433;48.034;-1.764;2023-09-18T02:12:03;3.25;;;2.40;;
35304;SDS011;26433;48.034;-1.764;2023-09-18T02:17:07;3.95;;;2.40;;
35304;SDS011;26433;48.034;-1.764;2023-09-18T02:22:11;3.53;;;2.20;;
35304;SDS011;26433;48.034;-1.764;2023-09-18T02:27:18;3.62;;;1.67;;
35304;SDS011;26433;48.034;-1.764;2023-09-18T02:32:21;2.95;;;1.87;;
35304;SDS011;26433;48.034;-1.764;2023-09-18T02:37:25;2.58;;;2.35;;
35304;SDS011;26433;48.034;-1.764;2023-09-18T02:42:32;3.67;;;1.80;;
35304;SDS011;26433;48.034;-1.764;2023-09-18T02:47:35;3.67;;;2.03;;
35304;SDS011;26433;48.034;-1.764;2023-09-18T02:52:43;2.83;;;1.62;;
35304;SDS011;26433;48.034;-1.764;2023-09-18T02:57:48;3.20;;;2.00;;
35304;SDS011;26433;48.034;-1.764;2023-09-18T03:02:52;3.15;;;1.60;;
35304;SDS011;26433;48.034;-1.764;2023-09-18T03:07:56;2.72;;;1.67;;
35304;SDS011;26433;48.034;-1.764;2023-09-18T03:13:01;2.08;;;1.62;;
35304;SDS011;26433;48.034;-1.764;2023-09-18T03:18:06;4.53;;;2.33;;
35304;SDS011;26433;48.034;-1.764;2023-09-18T03:23:12;3.35;;;1.77;;
35304;SDS011;26433;48.034;-1.764;2023-09-18T03:33:21;2.17;;;1.92;;
35304;SDS011;26433;48.034;-1.764;2023-09-18T03:38:25;3.78;;;2.40;;
35304;SDS011;26433;48.034;-1.764;2023-09-18T03:43:31;5.32;;;1.77;;
35304;SDS011;26433;48.034;-1.764;2023-09-18T03:48:35;2.55;;;1.85;;
35304;SDS011;26433;48.034;-1.764;2023-09-18T03:53:39;2.50;;;1.58;;
35304;SDS011;26433;48.034;-1.764;2023-09-18T03:58:44;4.67;;;2.03;;
35304;SDS011;26433;48.034;-1.764;2023-09-18T04:03:51;4.32;;;1.60;;
35304;SDS011;26433;48.034;-1.764;2023-09-18T04:08:56;1.50;;;1.40;;
35304;SDS011;26433;48.034;-1.764;2023-09-18T04:14:01;3.10;;;1.55;;
35304;SDS011;26433;48.034;-1.764;2023-09-18T04:19:05;2.05;;;1.55;;
35304;SDS011;26433;48.034;-1.764;2023-09-18T04:24:09;3.12;;;1.92;;
35304;SDS011;26433;48.034;-1.764;2023-09-18T04:29:14;1.73;;;1.37;;
35304;SDS011;26433;48.034;-1.764;2023-09-18T04:34:18;2.33;;;1.80;;
35304;SDS011;26433;48.034;-1.764;2023-09-18T04:39:23;2.50;;;1.73;;
35304;SDS011;26433;48.034;-1.764;2023-09-18T04:44:28;4.95;;;1.35;;
35304;SDS011;26433;48.034;-1.764;2023-09-18T04:49:32;3.15;;;1.60;;
35304;SDS011;26433;48.034;-1.764;2023-09-18T04:54:36;2.58;;;1.73;;
35304;SDS011;26433;48.034;-1.764;2023-09-18T04:59:42;2.10;;;1.85;;
35304;SDS011;26433;48.034;-1.764;2023-09-18T05:04:45;3.20;;;1.90;;
35304;SDS011;26433;48.034;-1.764;2023-09-18T05:09:49;4.03;;;1.90;;
35304;SDS011;26433;48.034;-1.764;2023-09-18T05:14:54;3.53;;;1.85;;
35304;SDS011;26433;48.034;-1.764;2023-09-18T05:20:00;2.30;;;1.77;;
35304;SDS011;26433;48.034;-1.764;2023-09-18T05:25:04;3.03;;;1.40;;
35304;SDS011;26433;48.034;-1.764;2023-09-18T05:30:10;2.10;;;1.60;;
35304;SDS011;26433;48.034;-1.764;2023-09-18T05:35:17;1.73;;;1.23;;
35304;SDS011;26433;48.034;-1.764;2023-09-18T05:40:21;2.70;;;1.37;;
35304;SDS011;26433;48.034;-1.764;2023-09-18T05:45:26;2.00;;;1.70;;
35304;SDS011;26433;48.034;-1.764;2023-09-18T05:50:31;2.55;;;1.80;;
35304;SDS011;26433;48.034;-1.764;2023-09-18T05:55:37;3.60;;;1.85;;
35304;SDS011;26433;48.034;-1.764;2023-09-18T06:00:43;2.58;;;2.15;;
35304;SDS011;26433;48.034;-1.764;2023-09-18T06:05:46;1.85;;;1.67;;
35304;SDS011;26433;48.034;-1.764;2023-09-18T06:10:51;2.28;;;1.75;;
35304;SDS011;26433;48.034;-1.764;2023-09-18T06:15:57;6.80;;;1.83;;
35304;SDS011;26433;48.034;-1.764;2023-09-18T06:21:01;3.30;;;1.10;;
35304;SDS011;26433;48.034;-1.764;2023-09-18T06:26:05;2.12;;;1.30;;
35304;SDS011;26433;48.034;-1.764;2023-09-18T06:31:10;1.87;;;1.50;;
35304;SDS011;26433;48.034;-1.764;2023-09-18T06:36:14;3.37;;;1.95;;
35304;SDS011;26433;48.034;-1.764;2023-09-18T06:41:18;1.77;;;1.10;;
35304;SDS011;26433;48.034;-1.764;2023-09-18T06:46:23;2.50;;;1.37;;
35304;SDS011;26433;48.034;-1.764;2023-09-18T06:51:27;2.72;;;1.40;;
35304;SDS011;26433;48.034;-1.764;2023-09-18T06:56:37;1.65;;;1.00;;
35304;SDS011;26433;48.034;-1.764;2023-09-18T07:01:45;2.45;;;1.10;;
35304;SDS011;26433;48.034;-1.764;2023-09-18T07:06:49;2.22;;;1.10;;
35304;SDS011;26433;48.034;-1.764;2023-09-18T07:11:53;1.45;;;1.02;;
35304;SDS011;26433;48.034;-1.764;2023-09-18T07:16:59;1.62;;;1.00;;
35304;SDS011;26433;48.034;-1.764;2023-09-18T07:22:03;1.77;;;0.93;;
35304;SDS011;26433;48.034;-1.764;2023-09-18T07:27:07;2.95;;;0.95;;
35304;SDS011;26433;48.034;-1.764;2023-09-18T07:32:12;1.20;;;1.00;;
35304;SDS011;26433;48.034;-1.764;2023-09-18T07:37:36;2.95;;;1.15;;
35304;SDS011;26433;48.034;-1.764;2023-09-18T07:42:40;2.40;;;0.90;;
35304;SDS011;26433;48.034;-1.764;2023-09-18T07:47:47;2.65;;;0.85;;
35304;SDS011;26433;48.034;-1.764;2023-09-18T07:52:51;2.08;;;0.90;;
35304;SDS011;26433;48.034;-1.764;2023-09-18T07:57:55;1.67;;;1.05;;
35304;SDS011;26433;48.034;-1.764;2023-09-18T08:03:01;1.25;;;0.90;;
35304;SDS011;26433;48.034;-1.764;2023-09-18T08:08:05;4.78;;;0.90;;
35304;SDS011;26433;48.034;-1.764;2023-09-18T08:13:09;0.68;;;0.57;;
35304;SDS011;26433;48.034;-1.764;2023-09-18T08:18:14;12.17;;;1.00;;
35304;SDS011;26433;48.034;-1.764;2023-09-18T08:23:18;2.35;;;1.02;;
35304;SDS011;26433;48.034;-1.764;2023-09-18T08:28:22;2.92;;;1.00;;
35304;SDS011;26433;48.034;-1.764;2023-09-18T08:33:27;2.97;;;0.90;;
35304;SDS011;26433;48.034;-1.764;2023-09-18T08:38:31;1.55;;;0.60;;
35304;SDS011;26433;48.034;-1.764;2023-09-18T08:43:35;3.12;;;0.80;;
35304;SDS011;26433;48.034;-1.764;2023-09-18T08:48:41;2.22;;;0.55;;
35304;SDS011;26433;48.034;-1.764;2023-09-18T08:53:45;1.52;;;0.77;;
35304;SDS011;26433;48.034;-1.764;2023-09-18T08:58:49;2.33;;;0.80;;
35304;SDS011;26433;48.034;-1.764;2023-09-18T09:03:56;1.02;;;0.65;;
35304;SDS011;26433;48.034;-1.764;2023-09-18T09:09:02;1.98;;;0.73;;
35304;SDS011;26433;48.034;-1.764;2023-09-18T09:14:09;1.08;;;0.75;;
35304;SDS011;26433;48.034;-1.764;2023-09-18T09:19:27;1.73;;;0.95;;
35304;SDS011;26433;48.034;-1.764;2023-09-18T09:24:35;0.37;;;0.32;;
35304;SDS011;26433;48.034;-1.764;2023-09-18T09:29:40;1.70;;;0.60;;
35304;SDS011;26433;48.034;-1.764;2023-09-18T09:34:45;0.88;;;0.75;;
35304;SDS011;26433;48.034;-1.764;2023-09-18T09:39:50;2.05;;;0.60;;
35304;SDS011;26433;48.034;-1.764;2023-09-18T09:45:01;1.87;;;0.52;;
35304;SDS011;26433;48.034;-1.764;2023-09-18T09:50:08;0.75;;;0.37;;
35304;SDS011;26433;48.034;-1.764;2023-09-18T09:55:20;2.55;;;0.40;;
35304;SDS011;26433;48.034;-1.764;2023-09-18T10:00:25;1.17;;;0.60;;
35304;SDS011;26433;48.034;-1.764;2023-09-18T10:05:36;1.20;;;0.47;;
35304;SDS011;26433;48.034;-1.764;2023-09-18T10:10:43;1.87;;;0.35;;
35304;SDS011;26433;48.034;-1.764;2023-09-18T10:15:52;1.62;;;0.52;;
35304;SDS011;26433;48.034;-1.764;2023-09-18T10:21:00;1.95;;;0.55;;
35304;SDS011;26433;48.034;-1.764;2023-09-18T10:26:13;0.82;;;0.43;;
35304;SDS011;26433;48.034;-1.764;2023-09-18T10:31:23;1.17;;;0.50;;
35304;SDS011;26433;48.034;-1.764;2023-09-18T10:36:28;0.57;;;0.40;;
35304;SDS011;26433;48.034;-1.764;2023-09-18T10:41:35;1.05;;;0.40;;
35304;SDS011;26433;48.034;-1.764;2023-09-18T10:46:40;0.60;;;0.40;;
35304;SDS011;26433;48.034;-1.764;2023-09-18T10:51:47;1.80;;;0.60;;
35304;SDS011;26433;48.034;-1.764;2023-09-18T10:56:51;0.45;;;0.30;;
35304;SDS011;26433;48.034;-1.764;2023-09-18T11:01:55;0.88;;;0.40;;
35304;SDS011;26433;48.034;-1.764;2023-09-18T11:07:04;0.93;;;0.60;;
35304;SDS011;26433;48.034;-1.764;2023-09-18T11:12:08;0.40;;;0.40;;
35304;SDS011;26433;48.034;-1.764;2023-09-18T11:17:29;0.75;;;0.50;;
35304;SDS011;26433;48.034;-1.764;2023-09-18T11:22:37;1.58;;;0.40;;
35304;SDS011;26433;48.034;-1.764;2023-09-18T11:27:52;0.52;;;0.40;;
35304;SDS011;26433;48.034;-1.764;2023-09-18T11:32:57;0.60;;;0.30;;
35304;SDS011;26433;48.034;-1.764;2023-09-18T11:38:07;0.60;;;0.30;;
35304;SDS011;26433;48.034;-1.764;2023-09-18T11:43:24;4.43;;;0.40;;
35304;SDS011;26433;48.034;-1.764;2023-09-18T11:48:32;0.73;;;0.65;;
35304;SDS011;26433;48.034;-1.764;2023-09-18T11:53:39;0.30;;;0.30;;
35304;SDS011;26433;48.034;-1.764;2023-09-18T11:58:46;2.33;;;0.47;;
35304;SDS011;26433;48.034;-1.764;2023-09-18T12:03:53;5.82;;;0.68;;
35304;SDS011;26433;48.034;-1.764;2023-09-18T12:08:59;0.30;;;0.30;;
35304;SDS011;26433;48.034;-1.764;2023-09-18T12:14:03;2.08;;;0.43;;
35304;SDS011;26433;48.034;-1.764;2023-09-18T12:19:07;0.75;;;0.52;;
35304;SDS011;26433;48.034;-1.764;2023-09-18T12:24:14;0.40;;;0.37;;
35304;SDS011;26433;48.034;-1.764;2023-09-18T12:29:18;2.20;;;0.50;;
35304;SDS011;26433;48.034;-1.764;2023-09-18T12:39:31;1.15;;;0.45;;
35304;SDS011;26433;48.034;-1.764;2023-09-18T12:44:36;0.80;;;0.55;;
35304;SDS011;26433;48.034;-1.764;2023-09-18T12:49:40;1.37;;;0.50;;
35304;SDS011;26433;48.034;-1.764;2023-09-18T12:54:45;0.73;;;0.35;;
35304;SDS011;26433;48.034;-1.764;2023-09-18T12:59:56;0.50;;;0.40;;
35304;SDS011;26433;48.034;-1.764;2023-09-18T13:05:00;0.47;;;0.30;;
35304;SDS011;26433;48.034;-1.764;2023-09-18T13:10:07;1.42;;;0.30;;
35304;SDS011;26433;48.034;-1.764;2023-09-18T13:15:12;3.75;;;0.40;;
35304;SDS011;26433;48.034;-1.764;2023-09-18T13:20:16;0.32;;;0.30;;
35304;SDS011;26433;48.034;-1.764;2023-09-18T13:25:24;0.65;;;0.30;;
35304;SDS011;26433;48.034;-1.764;2023-09-18T13:30:31;0.20;;;0.20;;
35304;SDS011;26433;48.034;-1.764;2023-09-18T13:35:36;0.82;;;0.35;;
35304;SDS011;26433;48.034;-1.764;2023-09-18T13:40:43;0.55;;;0.22;;
35304;SDS011;26433;48.034;-1.764;2023-09-18T13:45:48;0.55;;;0.55;;
35304;SDS011;26433;48.034;-1.764;2023-09-18T13:50:54;0.75;;;0.22;;
35304;SDS011;26433;48.034;-1.764;2023-09-18T13:56:00;3.92;;;0.52;;
35304;SDS011;26433;48.034;-1.764;2023-09-18T14:01:04;0.20;;;0.20;;
35304;SDS011;26433;48.034;-1.764;2023-09-18T14:06:09;1.45;;;0.20;;
35304;SDS011;26433;48.034;-1.764;2023-09-18T14:16:20;2.05;;;0.20;;
35304;SDS011;26433;48.034;-1.764;2023-09-18T14:21:24;24.05;;;0.95;;
35304;SDS011;26433;48.034;-1.764;2023-09-18T14:26:33;3.55;;;0.30;;
35304;SDS011;26433;48.034;-1.764;2023-09-18T14:31:42;2.17;;;0.70;;
35304;SDS011;26433;48.034;-1.764;2023-09-18T14:36:46;1.15;;;0.47;;
35304;SDS011;26433;48.034;-1.764;2023-09-18T14:41:52;0.52;;;0.20;;
35304;SDS011;26433;48.034;-1.764;2023-09-18T14:46:55;1.65;;;0.30;;
35304;SDS011;26433;48.034;-1.764;2023-09-18T14:51:59;0.85;;;0.35;;
35304;SDS011;26433;48.034;-1.764;2023-09-18T14:57:04;1.43;;;0.30;;
35304;SDS011;26433;48.034;-1.764;2023-09-18T15:02:08;1.48;;;0.35;;
35304;SDS011;26433;48.034;-1.764;2023-09-18T15:07:12;0.40;;;0.25;;
35304;SDS011;26433;48.034;-1.764;2023-09-18T15:12:17;0.93;;;0.30;;
35304;SDS011;26433;48.034;-1.764;2023-09-18T15:17:21;0.47;;;0.30;;
35304;SDS011;26433;48.034;-1.764;2023-09-18T15:22:25;0.93;;;0.70;;
35304;SDS011;26433;48.034;-1.764;2023-09-18T15:27:31;1.60;;;0.60;;
35304;SDS011;26433;48.034;-1.764;2023-09-18T15:32:45;0.52;;;0.43;;
35304;SDS011;26433;48.034;-1.764;2023-09-18T15:37:52;0.55;;;0.30;;
35304;SDS011;26433;48.034;-1.764;2023-09-18T15:42:58;2.87;;;0.30;;
35304;SDS011;26433;48.034;-1.764;2023-09-18T15:48:01;1.10;;;0.40;;
35304;SDS011;26433;48.034;-1.764;2023-09-18T15:53:06;1.65;;;0.40;;
35304;SDS011;26433;48.034;-1.764;2023-09-18T15:58:11;1.93;;;0.60;;
35304;SDS011;26433;48.034;-1.764;2023-09-18T16:03:15;1.17;;;0.60;;
35304;SDS011;26433;48.034;-1.764;2023-09-18T16:08:20;3.65;;;0.85;;
35304;SDS011;26433;48.034;-1.764;2023-09-18T16:13:25;1.80;;;0.30;;
35304;SDS011;26433;48.034;-1.764;2023-09-18T16:18:28;2.00;;;0.95;;
35304;SDS011;26433;48.034;-1.764;2023-09-18T16:23:32;1.67;;;0.52;;
35304;SDS011;26433;48.034;-1.764;2023-09-18T16:28:38;1.75;;;0.30;;
35304;SDS011;26433;48.034;-1.764;2023-09-18T16:33:45;1.27;;;0.50;;
35304;SDS011;26433;48.034;-1.764;2023-09-18T16:38:48;1.10;;;0.55;;
35304;SDS011;26433;48.034;-1.764;2023-09-18T16:43:53;0.83;;;0.43;;
35304;SDS011;26433;48.034;-1.764;2023-09-18T16:48:57;0.82;;;0.35;;
35304;SDS011;26433;48.034;-1.764;2023-09-18T16:54:01;4.70;;;0.97;;
35304;SDS011;26433;48.034;-1.764;2023-09-18T16:59:06;1.83;;;0.68;;
35304;SDS011;26433;48.034;-1.764;2023-09-18T17:04:10;1.02;;;0.57;;
35304;SDS011;26433;48.034;-1.764;2023-09-18T17:09:16;5.87;;;0.50;;
35304;SDS011;26433;48.034;-1.764;2023-09-18T17:14:23;1.60;;;0.50;;
35304;SDS011;26433;48.034;-1.764;2023-09-18T17:19:27;1.35;;;0.85;;
35304;SDS011;26433;48.034;-1.764;2023-09-18T17:24:31;5.13;;;0.83;;
35304;SDS011;26433;48.034;-1.764;2023-09-18T17:29:40;2.22;;;0.25;;
35304;SDS011;26433;48.034;-1.764;2023-09-18T17:34:44;1.37;;;0.35;;
35304;SDS011;26433;48.034;-1.764;2023-09-18T17:39:49;2.92;;;0.55;;
35304;SDS011;26433;48.034;-1.764;2023-09-18T17:44:54;3.00;;;0.40;;
35304;SDS011;26433;48.034;-1.764;2023-09-18T17:49:58;0.65;;;0.40;;
35304;SDS011;26433;48.034;-1.764;2023-09-18T17:55:02;1.23;;;0.47;;
35304;SDS011;26433;48.034;-1.764;2023-09-18T18:00:09;1.37;;;0.55;;
35304;SDS011;26433;48.034;-1.764;2023-09-18T18:05:17;1.52;;;0.40;;
35304;SDS011;26433;48.034;-1.764;2023-09-18T18:10:28;0.52;;;0.30;;
35304;SDS011;26433;48.034;-1.764;2023-09-18T18:15:36;3.78;;;0.50;;
35304;SDS011;26433;48.034;-1.764;2023-09-18T18:20:42;0.95;;;0.40;;
35304;SDS011;26433;48.034;-1.764;2023-09-18T18:25:49;0.68;;;0.25;;
35304;SDS011;26433;48.034;-1.764;2023-09-18T18:30:55;1.23;;;0.45;;
35304;SDS011;26433;48.034;-1.764;2023-09-18T18:35:59;1.90;;;0.50;;
35304;SDS011;26433;48.034;-1.764;2023-09-18T18:41:02;1.30;;;0.27;;
35304;SDS011;26433;48.034;-1.764;2023-09-18T18:46:08;0.73;;;0.20;;
35304;SDS011;26433;48.034;-1.764;2023-09-18T18:51:13;0.82;;;0.30;;
35304;SDS011;26433;48.034;-1.764;2023-09-18T18:56:21;2.92;;;0.40;;
35304;SDS011;26433;48.034;-1.764;2023-09-18T19:01:26;1.55;;;0.25;;
35304;SDS011;26433;48.034;-1.764;2023-09-18T19:06:31;1.15;;;0.32;;
35304;SDS011;26433;48.034;-1.764;2023-09-18T19:11:35;0.30;;;0.30;;
35304;SDS011;26433;48.034;-1.764;2023-09-18T19:16:40;0.22;;;0.20;;
35304;SDS011;26433;48.034;-1.764;2023-09-18T19:21:44;0.28;;;0.10;;
35304;SDS011;26433;48.034;-1.764;2023-09-18T19:26:48;2.27;;;0.20;;
35304;SDS011;26433;48.034;-1.764;2023-09-18T19:31:54;1.77;;;0.43;;
35304;SDS011;26433;48.034;-1.764;2023-09-18T19:36:58;0.13;;;0.13;;
35304;SDS011;26433;48.034;-1.764;2023-09-18T19:42:10;0.40;;;0.20;;
35304;SDS011;26433;48.034;-1.764;2023-09-18T19:47:15;0.30;;;0.30;;
35304;SDS011;26433;48.034;-1.764;2023-09-18T19:52:19;1.27;;;0.20;;
35304;SDS011;26433;48.034;-1.764;2023-09-18T19:57:24;0.10;;;0.10;;
35304;SDS011;26433;48.034;-1.764;2023-09-18T20:02:29;0.22;;;0.03;;
35304;SDS011;26433;48.034;-1.764;2023-09-18T20:07:35;0.20;;;0.20;;
35304;SDS011;26433;48.034;-1.764;2023-09-18T20:12:39;2.17;;;0.20;;
35304;SDS011;26433;48.034;-1.764;2023-09-18T20:17:44;0.73;;;0.20;;
35304;SDS011;26433;48.034;-1.764;2023-09-18T20:22:49;1.00;;;0.30;;
35304;SDS011;26433;48.034;-1.764;2023-09-18T20:27:52;0.20;;;0.10;;
35304;SDS011;26433;48.034;-1.764;2023-09-18T20:32:58;0.37;;;0.37;;
35304;SDS011;26433;48.034;-1.764;2023-09-18T20:38:05;1.77;;;0.30;;
35304;SDS011;26433;48.034;-1.764;2023-09-18T20:43:12;0.20;;;0.17;;
35304;SDS011;26433;48.034;-1.764;2023-09-18T20:48:17;4.57;;;0.43;;
35304;SDS011;26433;48.034;-1.764;2023-09-18T20:53:21;1.92;;;0.30;;
35304;SDS011;26433;48.034;-1.764;2023-09-18T20:58:25;0.70;;;0.20;;
35304;SDS011;26433;48.034;-1.764;2023-09-18T21:03:31;1.48;;;0.17;;
35304;SDS011;26433;48.034;-1.764;2023-09-18T21:08:34;3.92;;;0.30;;
35304;SDS011;26433;48.034;-1.764;2023-09-18T21:13:39;1.02;;;0.30;;
35304;SDS011;26433;48.034;-1.764;2023-09-18T21:18:48;2.22;;;0.40;;
35304;SDS011;26433;48.034;-1.764;2023-09-18T21:23:52;0.98;;;0.50;;
35304;SDS011;26433;48.034;-1.764;2023-09-18T21:28:56;3.60;;;0.33;;
35304;SDS011;26433;48.034;-1.764;2023-09-18T21:34:01;0.73;;;0.60;;
35304;SDS011;26433;48.034;-1.764;2023-09-18T21:39:05;2.28;;;0.37;;
35304;SDS011;26433;48.034;-1.764;2023-09-18T21:44:10;2.62;;;0.30;;
35304;SDS011;26433;48.034;-1.764;2023-09-18T21:49:16;0.47;;;0.30;;
35304;SDS011;26433;48.034;-1.764;2023-09-18T21:54:20;1.08;;;0.30;;
35304;SDS011;26433;48.034;-1.764;2023-09-18T21:59:23;0.83;;;0.47;;
35304;SDS011;26433;48.034;-1.764;2023-09-18T22:04:29;4.80;;;0.82;;
35304;SDS011;26433;48.034;-1.764;2023-09-18T22:09:32;1.25;;;0.25;;
35304;SDS011;26433;48.034;-1.764;2023-09-18T22:14:36;0.73;;;0.60;;
35304;SDS011;26433;48.034;-1.764;2023-09-18T22:19:41;3.30;;;0.77;;
35304;SDS011;26433;48.034;-1.764;2023-09-18T22:24:45;2.55;;;0.32;;
35304;SDS011;26433;48.034;-1.764;2023-09-18T22:29:50;0.57;;;0.35;;
35304;SDS011;26433;48.034;-1.764;2023-09-18T22:34:55;2.30;;;1.42;;
35304;SDS011;26433;48.034;-1.764;2023-09-18T22:56:31;0.60;;;0.30;;
35304;SDS011;26433;48.034;-1.764;2023-09-18T23:01:34;0.82;;;0.20;;
35304;SDS011;26433;48.034;-1.764;2023-09-18T23:06:38;0.62;;;0.20;;
35304;SDS011;26433;48.034;-1.764;2023-09-18T23:11:45;1.35;;;0.30;;
35304;SDS011;26433;48.034;-1.764;2023-09-18T23:16:50;0.93;;;0.32;;
35304;SDS011;26433;48.034;-1.764;2023-09-18T23:21:54;1.52;;;0.77;;
35304;SDS011;26433;48.034;-1.764;2023-09-18T23:27:00;3.25;;;0.43;;
35304;SDS011;26433;48.034;-1.764;2023-09-18T23:32:04;2.40;;;0.95;;
35304;SDS011;26433;48.034;-1.764;2023-09-18T23:37:08;0.52;;;0.20;;
35304;SDS011;26433;48.034;-1.764;2023-09-18T23:42:14;3.55;;;0.57;;
35304;SDS011;26433;48.034;-1.764;2023-09-18T23:47:19;3.72;;;0.30;;
35304;SDS011;26433;48.034;-1.764;2023-09-18T23:52:22;10.23;;;0.90;;
35304;SDS011;26433;48.034;-1.764;2023-09-18T23:57:29;1.83;;;0.55;;
